Home > Products > Valid Products > TAF

000
FTUS44 KLIX 231700
TAFNEW
TAF
KNEW 231727Z 2318/2418 32006KT P6SM SKC
     FM241100 20004KT P6SM BKN050
     FM241400 19005KT P6SM SCT050=



000
FTUS44 KLIX 231700
TAFNEW
TAF
KNEW 231727Z 2318/2418 32006KT P6SM SKC
     FM241100 20004KT P6SM BKN050
     FM241400 19005KT P6SM SCT050=



000
FTUS44 KLIX 231700
TAFMCB
TAF
KMCB 231727Z 2318/2418 VRB04KT P6SM SKC
     FM241100 00000KT P6SM BKN050
     FM241300 VRB03KT P6SM SCT050
     FM241600 18007KT P6SM SCT050=



000
FTUS44 KLIX 231700
TAFBTR
TAF
KBTR 231727Z 2318/2418 10004KT P6SM SKC
     FM241000 00000KT P6SM BKN050
     FM241500 18006KT P6SM SCT050=



000
FTUS44 KLIX 231700
TAFMSY
TAF
KMSY 231727Z 2318/2418 VRB05KT P6SM FEW040
     FM240000 17007KT P6SM SCT050
     FM240800 VRB03KT P6SM SCT050
     FM241400 19004KT P6SM SCT050=



000
FTUS44 KLIX 231700
TAFGPT
TAF
KGPT 231727Z 2318/2418 16009KT P6SM SCT050
     FM240000 22006KT P6SM SCT050
     FM240800 VRB03KT P6SM SCT050
     FM241700 17007KT P6SM SCT050=



000
FTUS44 KLIX 231100
TAFMSY
TAF
KMSY 231128Z 2312/2412 00000KT P6SM SKC
     FM231400 17008KT P6SM FEW040 SCT250=



000
FTUS44 KLIX 231100
TAFBTR
TAF
KBTR 231128Z 2312/2412 00000KT P6SM SKC
     FM231400 20005KT P6SM FEW050 SCT250=



000
FTUS44 KLIX 231100
TAFMCB
TAF
KMCB 231128Z 2312/2412 00000KT P6SM SKC
     FM231400 02004KT P6SM FEW040 SCT250
     FM240800 00000KT 4SM BR SKC=



000
FTUS44 KLIX 231100
TAFGPT
TAF
KGPT 231128Z 2312/2412 35002KT 6SM BR SKC
     FM231400 02005KT P6SM FEW025
     FM231900 18007KT P6SM FEW040 SCT250
     FM240000 00000KT P6SM SKC=



000
FTUS44 KLIX 231100
TAFNEW
TAF
KNEW 231128Z 2312/2412 36008KT P6SM SKC
     FM232100 19007KT P6SM FEW040 SCT250=



000
FTUS44 KLIX 231100
TAFNEW
TAF
KNEW 231128Z 2312/2412 36008KT P6SM SKC
     FM232100 19007KT P6SM FEW040 SCT250=



000
FTUS44 KLIX 230500
TAFNEW
TAF
KNEW 230530Z 2306/2406 36008KT P6SM SKC
     FM231100 04007KT P6SM SKC
     FM232100 19007KT P6SM FEW040=



000
FTUS44 KLIX 230500
TAFMSY
TAF
KMSY 230530Z 2306/2406 35004KT P6SM SKC
     FM231100 36003KT 4SM BR SKC
     FM231400 01005KT P6SM FEW040=



000
FTUS44 KLIX 230500
TAFGPT
TAF
KGPT 230530Z 2306/2406 34004KT P6SM SKC
     FM231100 35002KT 4SM BR SKC
     FM231330 02005KT P6SM FEW025
     FM231900 18007KT P6SM FEW040=



000
FTUS44 KLIX 230500
TAFBTR
TAF
KBTR 230530Z 2306/2406 00000KT P6SM SKC
     FM231000 00000KT 4SM BR FEW002
      TEMPO 2311/2313 2SM BR
     FM231400 09004KT P6SM FEW050=



000
FTUS44 KLIX 230500
TAFNEW
TAF
KNEW 230530Z 2306/2406 36008KT P6SM SKC
     FM231100 04007KT P6SM SKC
     FM232100 19007KT P6SM FEW040=



000
FTUS44 KLIX 230500
TAFMCB
TAF
KMCB 230530Z 2306/2406 00000KT P6SM SKC
     FM230900 02003KT 4SM BR FEW002
     FM231100 02002KT 1/2SM FG SCT002
     FM231400 02004KT P6SM FEW040=



000
FTUS44 KLIX 222300 RRA
TAFNEW
TAF
KNEW 222343Z 2300/2324 31007KT P6SM FEW040 SCT060
     FM231100 01008KT P6SM FEW020
     FM231700 00000KT P6SM FEW250
     FM232100 23008KT P6SM FEW040=



000
FTUS44 KLIX 222300 RRA
TAFGPT
TAF
KGPT 222343Z 2300/2324 28005KT P6SM FEW025 SCT035 BKN080
     FM230300 33003KT P6SM SKC
     FM231000 35002KT 3SM BR FEW001
     FM231400 02005KT P6SM FEW025
     FM231900 15004KT P6SM FEW040=



000
FTUS44 KLIX 222300 RRA
TAFNEW
TAF
KNEW 222343Z 2300/2324 31007KT P6SM FEW040 SCT060
     FM231100 01008KT P6SM FEW020
     FM231700 00000KT P6SM FEW250
     FM232100 23008KT P6SM FEW040=



000
FTUS44 KLIX 222300 RRA
TAFMCB
TAF
KMCB 222343Z 2300/2324 33004KT P6SM SKC
     FM230800 02003KT 4SM BR SKC
     FM231000 02002KT 1/2SM FG SCT002
     FM231400 02004KT P6SM FEW040=



000
FTUS44 KLIX 222300 RRA
TAFBTR
TAF
KBTR 222343Z 2300/2324 29004KT P6SM SCT250
     FM231100 03002KT 4SM BR FEW003
      TEMPO 2311/2313 2SM BR
     FM231400 04004KT P6SM FEW040=



000
FTUS44 KLIX 222300 RRA
TAFMSY
TAF
KMSY 222343Z 2300/2324 26005KT P6SM FEW040 SCT060
     FM231000 36003KT 4SM BR SKC
     FM231400 01005KT P6SM FEW040=



000
FTUS44 KLIX 221900 AAA
TAFGPT
TAF AMD
KGPT 221903Z 2219/2318 31010KT P6SM BKN025
     FM222300 29007KT P6SM SCT090
     FM230300 VRB04KT P6SM FEW090
     FM231200 36005KT 5SM BR BKN008
     FM231500 04004KT P6SM FEW050=



000
FTUS44 KLIX 221900 AAA
TAFMCB
TAF AMD
KMCB 221902Z 2219/2318 31008KT P6SM SCT025 BKN045
     FM222300 31007KT P6SM SCT050
     FM230700 35005KT P6SM FEW050
     FM231000 36005KT 5SM BR BKN001
     FM231300 02005KT 3SM BR SCT050
     FM231500 04005KT P6SM SCT020=



000
FTUS44 KLIX 221900 AAA
TAFBTR
TAF AMD
KBTR 221901Z 2219/2318 31009KT P6SM SCT025 BKN040
     FM222300 VRB03KT P6SM SCT250
     FM231000 02005KT 3SM BR BKN008
     FM231600 05005KT P6SM SCT250=



000
FTUS44 KLIX 221700
TAFBTR
TAF
KBTR 221733Z 2218/2318 27009KT P6SM BKN014 OVC040
     FM222200 31006KT P6SM SCT050
     FM222300 VRB03KT P6SM SCT250
     FM231000 02005KT 3SM BR BKN008
     FM231600 05005KT P6SM SCT250=



000
FTUS44 KLIX 221700
TAFNEW
TAF
KNEW 221733Z 2218/2318 27010KT 6SM HZ BKN022 OVC027
     FM222300 27007KT P6SM SCT250
     FM230800 34004KT P6SM FEW250
     FM231300 02005KT P6SM BKN025=



000
FTUS44 KLIX 221700
TAFGPT
TAF
KGPT 221733Z 2218/2318 23006KT P6SM BKN030
     FM222300 26007KT P6SM SCT090
     FM230600 32004KT P6SM FEW090
     FM231200 36005KT 5SM BR BKN008
     FM231500 04004KT P6SM FEW050=



000
FTUS44 KLIX 221700
TAFMSY
TAF
KMSY 221733Z 2218/2318 28006KT P6SM OVC019
     FM222300 27007KT P6SM SCT050
     FM230400 30004KT P6SM SCT250
     FM231100 36005KT 3SM BR SCT001
     FM231300 02005KT 6SM BR BKN008
     FM231500 02005KT P6SM SCT020=



000
FTUS44 KLIX 221700
TAFMCB
TAF
KMCB 221733Z 2218/2318 29004KT P6SM BKN012 OVC045
     FM222300 31007KT P6SM SCT050
     FM230700 35005KT P6SM FEW050
     FM231000 36005KT 5SM BR BKN001
     FM231300 02005KT 3SM BR SCT050
     FM231500 04005KT P6SM SCT020=



000
FTUS44 KLIX 221600 AAA
TAFNEW
TAF AMD
KNEW 221602Z 2216/2312 28010KT P6SM SCT015 BKN025
     FM221800 29012G20KT P6SM BKN025 BKN050
     FM222300 28006KT P6SM FEW025 SCT050
     FM230500 35006KT P6SM FEW050=



000
FTUS44 KLIX 221600 AAA
TAFNEW
TAF AMD
KNEW 221602Z 2216/2312 28010KT P6SM SCT015 BKN025
     FM221800 29012G20KT P6SM BKN025 BKN050
     FM222300 28006KT P6SM FEW025 SCT050
     FM230500 35006KT P6SM FEW050=



000
FTUS44 KLIX 221600 AAB
TAFMCB
TAF AMD
KMCB 221600Z 2216/2312 24007KT 3SM BR OVC005
     FM221800 28007KT P6SM BKN010 BKN025
     FM222000 30007KT P6SM BKN025 BKN050
     FM222100 31006KT P6SM FEW025 SCT050
     FM230600 01004KT P6SM FEW050=



000
FTUS44 KLIX 221500 AAA
TAFMSY
TAF AMD
KMSY 221559Z 2216/2312 25008KT P6SM OVC018
     FM222000 27008KT P6SM BKN025 BKN050
     FM222300 27007KT P6SM FEW025 SCT050
     FM230400 33006KT P6SM SCT050
     FM231100 03005KT P6SM FEW050=



000
FTUS44 KLIX 221500 AAB
TAFBTR
TAF AMD
KBTR 221558Z 2216/2312 25010KT 5SM BR BKN015 OVC025
     FM221800 28010KT P6SM BKN025
     FM222200 30005KT P6SM FEW025 SCT050
     FM230500 01004KT P6SM FEW050=



000
FTUS44 KLIX 221400 AAA
TAFMCB
TAF AMD
KMCB 221426Z 2214/2312 24007KT 3SM BR OVC005
     FM221600 28007KT P6SM BKN010 BKN025
     FM222000 30007KT P6SM BKN025 BKN050
     FM222100 31006KT P6SM FEW025 SCT050
     FM230600 01004KT P6SM FEW050=



000
FTUS44 KLIX 221400 AAA
TAFBTR
TAF AMD
KBTR 221425Z 2214/2312 25010KT P6SM BKN010 OVC025
     FM221700 28010KT P6SM BKN025
     FM222200 30005KT P6SM FEW025 SCT050
     FM230500 01004KT P6SM FEW050=



000
FTUS44 KLIX 221100
TAFNEW
TAF
KNEW 221138Z 2212/2312 25005KT 5SM BR SCT250
     FM221300 26008KT P6SM SCT025
     FM221800 29012G20KT P6SM BKN050
     FM222300 28006KT P6SM FEW025 SCT050
     FM230500 35006KT P6SM FEW050=



000
FTUS44 KLIX 221100
TAFMCB
TAF
KMCB 221138Z 2212/2312 VRB03KT 3SM BR OVC002
     FM221300 28007KT P6SM BKN025
     FM222000 30007KT P6SM BKN025 BKN050
     FM222100 31006KT P6SM FEW025 SCT050
     FM230600 01004KT P6SM FEW050=



000
FTUS44 KLIX 221100
TAFGPT
TAF
KGPT 221138Z 2212/2312 26004KT P6SM BKN025 BKN050
     FM222000 24007KT P6SM BKN025 BKN050
     FM222300 25006KT P6SM FEW025 SCT050
     FM230400 32005KT P6SM SCT050=



000
FTUS44 KLIX 221100
TAFBTR
TAF
KBTR 221138Z 2212/2312 24004KT 6SM BR FEW006 SCT010 OVC060
     FM221300 26010KT P6SM SCT030 BKN100
     FM222200 30005KT P6SM FEW025 SCT050
     FM230500 01004KT P6SM FEW050=



000
FTUS44 KLIX 221100
TAFMSY
TAF
KMSY 221138Z 2212/2312 25004KT 6SM BR FEW250
     FM221300 25008KT P6SM FEW250
     FM222000 27008KT P6SM BKN025 BKN050
     FM222300 27007KT P6SM FEW025 SCT050
     FM230400 33006KT P6SM SCT050
     FM231100 03005KT P6SM FEW050=



000
FTUS44 KLIX 220500
TAFGPT
TAF
KGPT 220520Z 2206/2306 00000KT P6SM SKC
     FM221000 25002KT P6SM BKN015
     FM221200 25002KT 4SM BR BKN008
     FM221500 26009KT P6SM BKN015
     FM222000 27008KT P6SM BKN035=



000
FTUS44 KLIX 220500
TAFMSY
TAF
KMSY 220520Z 2206/2306 21004KT P6SM FEW030 SCT250
     FM221300 26007KT P6SM BKN040 OVC060
     FM221500 26010KT P6SM BKN027
     FM221800 26010KT P6SM BKN035=



000
FTUS44 KLIX 220500
TAFNEW
TAF
KNEW 220520Z 2206/2306 23005KT P6SM FEW030 SCT250
     FM221300 27009KT P6SM BKN040 OVC060
     FM221500 28012KT P6SM BKN025
     FM221800 28012KT P6SM BKN035=



000
FTUS44 KLIX 220500
TAFNEW
TAF
KNEW 220520Z 2206/2306 23005KT P6SM FEW030 SCT250
     FM221300 27009KT P6SM BKN040 OVC060
     FM221500 28012KT P6SM BKN025
     FM221800 28012KT P6SM BKN035=



000
FTUS44 KLIX 220500
TAFMCB
TAF
KMCB 220520Z 2206/2306 20006KT P6SM FEW080 SCT200
     FM220830 23004KT 6SM BR BKN012
     FM221000 26004KT 3SM BR OVC007
     FM221530 28008KT P6SM OVC011
     FM221800 28007KT P6SM BKN020 OVC040=



000
FTUS44 KLIX 220500
TAFBTR
TAF
KBTR 220520Z 2206/2306 20007KT P6SM SCT015 BKN200
     FM220800 24005KT P6SM BKN015
     FM221100 24004KT 6SM BR OVC008
     FM221500 27008KT P6SM OVC015
     FM222000 28008KT P6SM BKN035=



000
FTUS44 KLIX 212300 RRA
TAFNEW
TAF
KNEW 212340Z 2200/2224 19007KT P6SM FEW035 SCT250
     FM221200 27009KT P6SM BKN040 OVC060
     FM221400 28013KT P6SM BKN025
     FM221900 27012KT P6SM BKN040=



000
FTUS44 KLIX 212300 RRA
TAFNEW
TAF
KNEW 212340Z 2200/2224 19007KT P6SM FEW035 SCT250
     FM221200 27009KT P6SM BKN040 OVC060
     FM221400 28013KT P6SM BKN025
     FM221900 27012KT P6SM BKN040=



000
FTUS44 KLIX 212300 RRA
TAFGPT
TAF
KGPT 212340Z 2200/2224 19004KT P6SM FEW250
     FM220700 25002KT P6SM BKN015
     FM220900 25002KT 4SM BR OVC005
     FM221500 27008KT P6SM OVC015
     FM222000 26008KT P6SM BKN040=



000
FTUS44 KLIX 212300 RRA
TAFBTR
TAF
KBTR 212340Z 2200/2224 20005KT P6SM FEW040
     FM220800 24004KT P6SM OVC015
     FM221100 24004KT 4SM BR OVC007
     FM221500 27008KT P6SM OVC015
     FM222000 28008KT P6SM BKN040=



000
FTUS44 KLIX 212300 RRA
TAFMCB
TAF
KMCB 212340Z 2200/2224 21003KT P6SM SCT050
     FM220900 23002KT 3SM BR OVC007
     FM221500 28008KT 4SM BR OVC015
     FM221800 28007KT P6SM BKN020 OVC040=



000
FTUS44 KLIX 212300 RRA
TAFMSY
TAF
KMSY 212340Z 2200/2224 20005KT P6SM FEW035 SCT250
     FM221200 26007KT P6SM BKN040 OVC060
     FM221400 26010KT P6SM BKN025
     FM221900 26011KT P6SM BKN040=



000
FTUS44 KLIX 211700
TAFNEW
TAF
KNEW 211720Z 2118/2218 12007KT P6SM SCT030
     FM220500 20005KT P6SM BKN025 BKN250
     FM221400 24005KT P6SM BKN025
     FM221700 26007KT P6SM VCSH BKN015 BKN025=



000
FTUS44 KLIX 211700
TAFGPT
TAF
KGPT 211720Z 2118/2218 13007KT P6SM OVC022
     FM220000 18007KT P6SM BKN025 BKN050
     FM221700 24007KT P6SM VCSH BKN015 BKN025=



000
FTUS44 KLIX 211700
TAFNEW
TAF
KNEW 211720Z 2118/2218 12007KT P6SM SCT030
     FM220500 20005KT P6SM BKN025 BKN250
     FM221400 24005KT P6SM BKN025
     FM221700 26007KT P6SM VCSH BKN015 BKN025=



000
FTUS44 KLIX 211700
TAFBTR
TAF
KBTR 211720Z 2118/2218 VRB03KT P6SM SCT035
      TEMPO 2210/2214 3SM BR
     FM221400 25006KT P6SM BKN008 BKN025
     FM221700 27007KT P6SM VCTS BKN008CB BKN025=



000
FTUS44 KLIX 211700
TAFMSY
TAF
KMSY 211720Z 2118/2218 14005KT P6SM SCT029 BKN250
     FM220000 17006KT P6SM BKN025
     FM221400 24005KT P6SM BKN025
     FM221700 26007KT P6SM VCSH BKN015 BKN025=



000
FTUS44 KLIX 211700
TAFMCB
TAF
KMCB 211720Z 2118/2218 17007KT P6SM SKC
     FM211900 21006KT P6SM BKN025 BKN250
      TEMPO 2210/2214 2SM BR
     FM221500 26007KT P6SM BKN015 BKN025
     FM221700 28008KT P6SM VCSH BKN015 BKN025=



000
FTUS44 KLIX 211500 AAB
TAFNEW
TAF AMD
KNEW 211504Z 2115/2212 11006KT P6SM SCT015
     FM211800 11005KT P6SM BKN025
     FM220200 18007KT P6SM BKN020
     FM220900 27005KT P6SM BKN020=



000
FTUS44 KLIX 211400 AAA
TAFGPT
TAF AMD
KGPT 211429Z 2114/2212 11007KT P6SM BKN022
     FM211800 14007KT P6SM BKN035
     FM220400 20006KT P6SM BKN020=



000
FTUS44 KLIX 211400 AAA
TAFNEW
TAF AMD
KNEW 211401Z 2114/2212 10006KT P6SM BKN014
     FM211800 11005KT P6SM BKN025
     FM220200 18007KT P6SM BKN020
     FM220900 27005KT P6SM BKN020=



000
FTUS44 KLIX 211400 AAA
TAFNEW
TAF AMD
KNEW 211401Z 2114/2212 10006KT P6SM BKN014
     FM211800 11005KT P6SM BKN025
     FM220200 18007KT P6SM BKN020
     FM220900 27005KT P6SM BKN020=



000
FTUS44 KLIX 211400 AAA
TAFMCB
TAF AMD
KMCB 211400Z 2114/2212 20007KT P6SM SCT035
     FM220800 00000KT P6SM OVC020=



000
FTUS44 KLIX 211100
TAFMCB
TAF
KMCB 211135Z 2112/2212 00000KT P6SM OVC010
     FM211400 22005KT P6SM BKN035
     FM220800 00000KT P6SM OVC020=



000
FTUS44 KLIX 211100
TAFBTR
TAF
KBTR 211135Z 2112/2212 00000KT 5SM BR BKN007
     FM211300 19005KT P6SM BKN035
     FM220600 00000KT P6SM BKN020=



000
FTUS44 KLIX 211100
TAFMSY
TAF
KMSY 211135Z 2112/2212 VRB03KT P6SM FEW040 SCT250
     FM211800 11005KT P6SM BKN035
     FM220200 17005KT P6SM BKN020
     FM220800 23004KT P6SM BKN020=



000
FTUS44 KLIX 211100
TAFNEW
TAF
KNEW 211135Z 2112/2212 00000KT P6SM SCT250
     FM211800 11005KT P6SM BKN035
     FM220200 18007KT P6SM BKN020
     FM220900 27005KT P6SM BKN020=



000
FTUS44 KLIX 211100
TAFGPT
TAF
KGPT 211135Z 2112/2212 VRB03KT P6SM BKN250
     FM211400 12004KT P6SM SCT250
     FM211800 14007KT P6SM BKN035
     FM220400 20006KT P6SM BKN020=



000
FTUS44 KLIX 211000 AAA
TAFBTR
TAF AMD
KBTR 211041Z 2111/2206 14004KT 5SM BR OVC005
     FM211300 20007KT P6SM SCT050=



000
FTUS44 KLIX 210800 AAA
TAFMCB
TAF AMD
KMCB 210812Z 2108/2206 13002KT P6SM OVC005
      TEMPO 2110/2113 4SM BR
     FM211500 19006KT P6SM SCT050 BKN090=



000
FTUS44 KLIX 210500
TAFMSY
TAF
KMSY 210520Z 2106/2206 15008KT P6SM FEW250
     FM211500 16007KT P6SM SCT040=



000
FTUS44 KLIX 210500
TAFNEW
TAF
KNEW 210520Z 2106/2206 14007KT P6SM SKC
     FM211700 05009KT P6SM SCT040=



000
FTUS44 KLIX 210500
TAFBTR
TAF
KBTR 210520Z 2106/2206 24004KT P6SM SKC
     FM211500 20007KT P6SM SCT050=



000
FTUS44 KLIX 210500
TAFNEW
TAF
KNEW 210520Z 2106/2206 14007KT P6SM SKC
     FM211700 05009KT P6SM SCT040=



000
FTUS44 KLIX 210500
TAFGPT
TAF
KGPT 210520Z 2106/2206 16005KT P6SM SKC
     FM211500 16009KT P6SM SCT035=



000
FTUS44 KLIX 210500
TAFMCB
TAF
KMCB 210520Z 2106/2206 13002KT P6SM SKC
      TEMPO 2110/2113 4SM BR
     FM211500 19006KT P6SM SCT050 BKN090=



000
FTUS44 KLIX 202300 RRA
TAFNEW
TAF
KNEW 202340Z 2100/2124 16007KT P6SM SKC
     FM211500 05009KT P6SM SCT040=



000
FTUS44 KLIX 202300 RRA
TAFNEW
TAF
KNEW 202340Z 2100/2124 16007KT P6SM SKC
     FM211500 05009KT P6SM SCT040=



000
FTUS44 KLIX 202300 RRA
TAFGPT
TAF
KGPT 202340Z 2100/2124 13006KT P6SM SKC
     FM211500 15009KT P6SM SCT030=



000
FTUS44 KLIX 202300 RRA
TAFMSY
TAF
KMSY 202340Z 2100/2124 15005KT P6SM SKC
     FM211500 14007KT P6SM SCT040=



000
FTUS44 KLIX 202300 RRA
TAFBTR
TAF
KBTR 202340Z 2100/2124 12003KT P6SM SKC
      TEMPO 2110/2113 4SM BR
     FM211500 18007KT P6SM SCT050=



000
FTUS44 KLIX 202300 RRA
TAFMCB
TAF
KMCB 202340Z 2100/2124 07003KT P6SM SKC
      TEMPO 2109/2113 4SM BR
     FM211500 19006KT P6SM SCT050 BKN090=



    US Dept of Commerce
    National Oceanic and Atmospheric Administration
    National Weather Service
    1325 East West Highway
    Silver Spring, MD 20910
    Page Author: NWS Internet Services Team
Disclaimer
Information Quality
Credits
Glossary
Privacy Policy
Freedom of Information Act (FOIA)
About Us
Career Opportunities